TimeCST,TemperatureF,Dew PointF,Humidity,Sea Level PressureIn,VisibilityMPH,Wind Direction,Wind SpeedMPH,Gust SpeedMPH,PrecipitationIn,Events,Conditions,WindDirDegrees,DateUTC
12:15 AM,12.2,10.4,92,29.93,7.0,SW,13.8,21.9,N/A,Snow,Light Snow,230,2013-01-04 06:15:00
12:35 AM,12.2,10.4,92,29.93,5.0,WSW,11.5,19.6,N/A,Snow,Light Snow,240,2013-01-04 06:35:00
12:55 AM,12.2,10.4,92,29.92,4.0,SW,13.8,18.4,N/A,Snow,Light Snow,230,2013-01-04 06:55:00
1:15 AM,12.2,10.4,92,29.92,4.0,WSW,13.8,19.6,N/A,Snow,Light Snow,240,2013-01-04 07:15:00
1:35 AM,12.2,10.4,92,29.93,4.0,WSW,13.8,18.4,N/A,Snow,Light Snow,240,2013-01-04 07:35:00
1:55 AM,12.2,10.4,92,29.92,5.0,SW,12.7,20.7,N/A,Snow,Light Snow,230,2013-01-04 07:55:00
2:15 AM,12.2,10.4,92,29.94,5.0,WSW,10.4,18.4,N/A,Snow,Light Snow,240,2013-01-04 08:15:00
2:35 AM,14.0,10.4,86,29.93,5.0,WSW,11.5,-,N/A,Snow,Light Snow,240,2013-01-04 08:35:00
2:55 AM,14.0,10.4,86,29.94,5.0,WSW,9.2,-,N/A,Snow,Light Snow,240,2013-01-04 08:55:00
3:15 AM,14.0,10.4,86,29.93,7.0,WSW,10.4,-,N/A,Snow,Light Snow,240,2013-01-04 09:15:00
5:55 AM,12.2,10.4,92,29.91,10.0,SW,6.9,-,N/A,,Clear,230,2013-01-04 11:55:00
6:15 AM,12.2,10.4,92,29.92,10.0,WSW,4.6,-,N/A,,Clear,250,2013-01-04 12:15:00
6:35 AM,12.2,10.4,92,29.91,10.0,WSW,6.9,-,N/A,,Clear,240,2013-01-04 12:35:00
7:15 AM,12.2,10.4,92,29.92,10.0,WSW,4.6,-,N/A,,Clear,240,2013-01-04 13:15:00
7:35 AM,12.2,10.4,92,29.92,10.0,WSW,4.6,-,N/A,,Clear,240,2013-01-04 13:35:00
7:55 AM,12.2,10.4,92,29.93,10.0,WSW,3.5,-,N/A,,Clear,250,2013-01-04 13:55:00
8:15 AM,12.2,10.4,92,29.93,10.0,SW,3.5,-,N/A,,Unknown,230,2013-01-04 14:15:00
8:35 AM,12.2,10.4,92,29.94,10.0,WSW,4.6,-,N/A,,Unknown,240,2013-01-04 14:35:00
8:55 AM,15.8,12.2,86,29.95,10.0,WSW,5.8,-,N/A,,Unknown,250,2013-01-04 14:55:00
9:15 AM,15.8,12.2,86,29.95,10.0,WSW,6.9,-,N/A,,Clear,250,2013-01-04 15:15:00
9:35 AM,17.6,14.0,86,29.96,10.0,WSW,6.9,-,N/A,,Clear,240,2013-01-04 15:35:00
9:55 AM,19.4,15.8,86,29.96,10.0,WSW,6.9,-,N/A,,Clear,240,2013-01-04 15:55:00
10:15 AM,19.4,15.8,86,29.96,10.0,WSW,9.2,-,N/A,,Clear,240,2013-01-04 16:15:00
10:35 AM,21.2,15.8,80,29.96,10.0,WSW,6.9,-,N/A,,Clear,250,2013-01-04 16:35:00
10:55 AM,23.0,17.6,80,29.96,10.0,WSW,8.1,-,N/A,,Clear,250,2013-01-04 16:55:00
11:15 AM,24.8,17.6,74,29.96,10.0,WSW,6.9,-,N/A,,Clear,250,2013-01-04 17:15:00
11:35 AM,26.6,17.6,69,29.96,10.0,WSW,9.2,-,N/A,,Clear,250,2013-01-04 17:35:00
11:55 AM,26.6,17.6,69,29.96,10.0,WSW,9.2,-,N/A,,Clear,250,2013-01-04 17:55:00
12:15 PM,28.4,19.4,69,29.95,10.0,WSW,8.1,-,N/A,,Clear,240,2013-01-04 18:15:00
12:35 PM,30.2,19.4,64,29.95,10.0,WSW,6.9,-,N/A,,Clear,240,2013-01-04 18:35:00
12:55 PM,30.2,19.4,64,29.95,10.0,WSW,8.1,-,N/A,,Clear,240,2013-01-04 18:55:00
1:15 PM,33.8,19.4,56,29.95,10.0,West,8.1,-,N/A,,Clear,260,2013-01-04 19:15:00
1:35 PM,33.8,19.4,56,29.95,10.0,West,5.8,-,N/A,,Clear,260,2013-01-04 19:35:00
1:55 PM,33.8,19.4,56,29.95,10.0,WSW,8.1,-,N/A,,Clear,250,2013-01-04 19:55:00
2:15 PM,35.6,19.4,52,29.96,10.0,WSW,4.6,-,N/A,,Clear,250,2013-01-04 20:15:00
2:35 PM,35.6,19.4,52,29.97,10.0,Calm,Calm,-,N/A,,Clear,0,2013-01-04 20:35:00
2:55 PM,35.6,19.4,52,29.97,10.0,West,4.6,-,N/A,,Clear,260,2013-01-04 20:55:00
3:15 PM,35.6,19.4,52,29.99,10.0,WSW,5.8,-,N/A,,Clear,250,2013-01-04 21:15:00
3:35 PM,33.8,19.4,56,30.00,10.0,SW,6.9,-,N/A,,Clear,220,2013-01-04 21:35:00
3:55 PM,33.8,19.4,56,30.00,10.0,SW,6.9,-,N/A,,Clear,220,2013-01-04 21:55:00
4:15 PM,30.2,19.4,64,30.01,10.0,WSW,4.6,-,N/A,,Clear,240,2013-01-04 22:15:00
4:35 PM,30.2,19.4,64,30.02,10.0,SW,3.5,-,N/A,,Clear,230,2013-01-04 22:35:00
4:55 PM,28.4,19.4,69,30.03,10.0,SW,4.6,-,N/A,,Clear,230,2013-01-04 22:55:00
5:15 PM,28.4,19.4,69,30.03,10.0,WSW,4.6,-,N/A,,Clear,240,2013-01-04 23:15:00
5:35 PM,28.4,19.4,69,30.04,10.0,SW,5.8,-,N/A,,Clear,230,2013-01-04 23:35:00
5:55 PM,26.6,19.4,74,30.05,10.0,WSW,5.8,-,N/A,,Clear,240,2013-01-04 23:55:00
6:15 PM,26.6,19.4,74,30.05,10.0,WSW,5.8,-,N/A,,Clear,240,2013-01-05 00:15:00
6:35 PM,26.6,17.6,69,30.05,10.0,WSW,5.8,-,N/A,,Clear,240,2013-01-05 00:35:00
6:55 PM,26.6,17.6,69,30.05,10.0,WSW,3.5,-,N/A,,Clear,250,2013-01-05 00:55:00
7:15 PM,24.8,17.6,74,30.06,10.0,Calm,Calm,-,N/A,,Clear,0,2013-01-05 01:15:00
7:35 PM,23.0,17.6,80,30.07,10.0,Calm,Calm,-,N/A,,Clear,0,2013-01-05 01:35:00
8:15 PM,21.2,17.6,86,30.07,10.0,Calm,Calm,-,N/A,,Clear,0,2013-01-05 02:15:00
8:35 PM,17.6,15.8,93,30.07,10.0,Calm,Calm,-,N/A,,Clear,0,2013-01-05 02:35:00
8:55 PM,15.8,14.0,93,30.07,10.0,Calm,Calm,-,N/A,,Clear,0,2013-01-05 02:55:00
9:15 PM,15.8,14.0,93,30.07,10.0,Calm,Calm,-,N/A,,Clear,0,2013-01-05 03:15:00
9:35 PM,15.8,12.2,86,30.07,10.0,Calm,Calm,-,N/A,,Clear,0,2013-01-05 03:35:00
9:55 PM,14.0,12.2,93,30.08,10.0,Calm,Calm,-,N/A,,Clear,0,2013-01-05 03:55:00
10:15 PM,12.2,10.4,92,30.08,10.0,Calm,Calm,-,N/A,,Clear,0,2013-01-05 04:15:00
10:35 PM,14.0,12.2,93,30.09,10.0,Calm,Calm,-,N/A,,Clear,0,2013-01-05 04:35:00
10:55 PM,10.4,8.6,92,30.10,10.0,Calm,Calm,-,N/A,,Clear,0,2013-01-05 04:55:00
11:15 PM,12.2,10.4,92,30.10,10.0,Calm,Calm,-,N/A,,Unknown,0,2013-01-05 05:15:00
11:35 PM,8.6,6.8,92,30.10,10.0,Calm,Calm,-,N/A,,Unknown,0,2013-01-05 05:35:00
11:55 PM,10.4,8.6,92,30.10,7.0,Calm,Calm,-,N/A,,Clear,0,2013-01-05 05:55:00